sensor_id;sensor_type;location;lat;lon;timestamp;temperature;humidity
1429;DHT22;708;51.442;7.016;2023-04-10T00:00:51;10.00;1.00
1429;DHT22;708;51.442;7.016;2023-04-10T00:03:22;10.00;1.00
1429;DHT22;708;51.442;7.016;2023-04-10T00:05:50;10.00;1.00
1429;DHT22;708;51.442;7.016;2023-04-10T00:08:19;10.00;1.00
1429;DHT22;708;51.442;7.016;2023-04-10T00:10:45;10.00;1.00
1429;DHT22;708;51.442;7.016;2023-04-10T00:13:13;9.90;1.00
1429;DHT22;708;51.442;7.016;2023-04-10T00:15:40;10.00;1.00
1429;DHT22;708;51.442;7.016;2023-04-10T00:18:07;10.00;1.00
1429;DHT22;708;51.442;7.016;2023-04-10T00:20:34;9.90;1.00
1429;DHT22;708;51.442;7.016;2023-04-10T00:23:02;10.00;1.00
1429;DHT22;708;51.442;7.016;2023-04-10T00:25:29;9.90;1.00
1429;DHT22;708;51.442;7.016;2023-04-10T00:27:55;10.00;1.00
1429;DHT22;708;51.442;7.016;2023-04-10T00:30:22;10.00;1.00
1429;DHT22;708;51.442;7.016;2023-04-10T00:32:49;9.80;1.00
1429;DHT22;708;51.442;7.016;2023-04-10T00:35:16;10.00;1.00
1429;DHT22;708;51.442;7.016;2023-04-10T00:37:42;10.00;1.00
1429;DHT22;708;51.442;7.016;2023-04-10T00:40:11;10.00;1.00
1429;DHT22;708;51.442;7.016;2023-04-10T00:42:37;10.00;1.00
1429;DHT22;708;51.442;7.016;2023-04-10T00:45:05;9.90;1.00
1429;DHT22;708;51.442;7.016;2023-04-10T00:47:32;9.90;1.00
1429;DHT22;708;51.442;7.016;2023-04-10T00:49:59;9.80;1.00
1429;DHT22;708;51.442;7.016;2023-04-10T00:52:26;9.90;1.00
1429;DHT22;708;51.442;7.016;2023-04-10T00:54:53;10.00;1.00
1429;DHT22;708;51.442;7.016;2023-04-10T00:57:21;9.90;1.00
1429;DHT22;708;51.442;7.016;2023-04-10T00:59:48;10.00;1.00
1429;DHT22;708;51.442;7.016;2023-04-10T01:02:16;9.90;1.00
1429;DHT22;708;51.442;7.016;2023-04-10T01:04:44;10.00;1.00
1429;DHT22;708;51.442;7.016;2023-04-10T01:07:17;10.00;1.00
1429;DHT22;708;51.442;7.016;2023-04-10T01:09:57;10.00;1.00
1429;DHT22;708;51.442;7.016;2023-04-10T01:12:37;9.90;1.00
1429;DHT22;708;51.442;7.016;2023-04-10T01:15:10;10.20;1.00
1429;DHT22;708;51.442;7.016;2023-04-10T01:17:42;10.00;1.00
1429;DHT22;708;51.442;7.016;2023-04-10T01:20:13;9.90;1.00
1429;DHT22;708;51.442;7.016;2023-04-10T01:22:51;9.90;1.00
1429;DHT22;708;51.442;7.016;2023-04-10T01:25:39;9.90;1.00
1429;DHT22;708;51.442;7.016;2023-04-10T01:28:20;9.90;1.00
1429;DHT22;708;51.442;7.016;2023-04-10T01:30:53;9.90;1.00
1429;DHT22;708;51.442;7.016;2023-04-10T01:33:27;9.80;1.00
1429;DHT22;708;51.442;7.016;2023-04-10T01:35:57;9.90;1.00
1429;DHT22;708;51.442;7.016;2023-04-10T01:38:28;9.80;1.00
1429;DHT22;708;51.442;7.016;2023-04-10T01:40:57;9.90;1.00
1429;DHT22;708;51.442;7.016;2023-04-10T01:43:25;9.80;1.00
1429;DHT22;708;51.442;7.016;2023-04-10T01:45:55;9.90;1.00
1429;DHT22;708;51.442;7.016;2023-04-10T01:48:23;9.80;1.00
1429;DHT22;708;51.442;7.016;2023-04-10T01:50:51;9.90;1.00
1429;DHT22;708;51.442;7.016;2023-04-10T01:53:20;9.80;1.00
1429;DHT22;708;51.442;7.016;2023-04-10T01:55:49;9.90;1.00
1429;DHT22;708;51.442;7.016;2023-04-10T01:58:16;9.80;1.00
1429;DHT22;708;51.442;7.016;2023-04-10T02:00:43;9.90;1.00
1429;DHT22;708;51.442;7.016;2023-04-10T02:03:11;9.80;1.00
1429;DHT22;708;51.442;7.016;2023-04-10T02:05:47;9.80;1.00
1429;DHT22;708;51.442;7.016;2023-04-10T02:08:21;9.80;1.00
1429;DHT22;708;51.442;7.016;2023-04-10T02:10:53;9.80;1.00
1429;DHT22;708;51.442;7.016;2023-04-10T02:13:22;9.80;1.00
1429;DHT22;708;51.442;7.016;2023-04-10T02:15:53;9.70;1.00
1429;DHT22;708;51.442;7.016;2023-04-10T02:18:23;9.70;1.00
1429;DHT22;708;51.442;7.016;2023-04-10T02:20:51;9.80;1.00
1429;DHT22;708;51.442;7.016;2023-04-10T02:23:20;9.80;1.00
1429;DHT22;708;51.442;7.016;2023-04-10T02:25:48;9.80;1.00
1429;DHT22;708;51.442;7.016;2023-04-10T02:28:15;9.80;1.00
1429;DHT22;708;51.442;7.016;2023-04-10T02:30:41;9.80;1.00
1429;DHT22;708;51.442;7.016;2023-04-10T02:33:08;9.70;1.00
1429;DHT22;708;51.442;7.016;2023-04-10T02:35:36;9.70;1.00
1429;DHT22;708;51.442;7.016;2023-04-10T02:38:03;9.70;1.00
1429;DHT22;708;51.442;7.016;2023-04-10T02:40:30;9.70;1.00
1429;DHT22;708;51.442;7.016;2023-04-10T02:42:56;9.70;1.00
1429;DHT22;708;51.442;7.016;2023-04-10T02:45:23;9.70;1.00
1429;DHT22;708;51.442;7.016;2023-04-10T02:47:50;9.80;1.00
1429;DHT22;708;51.442;7.016;2023-04-10T02:50:16;9.70;1.00
1429;DHT22;708;51.442;7.016;2023-04-10T02:52:44;9.60;1.00
1429;DHT22;708;51.442;7.016;2023-04-10T02:55:11;9.70;1.00
1429;DHT22;708;51.442;7.016;2023-04-10T02:57:39;9.70;1.00
1429;DHT22;708;51.442;7.016;2023-04-10T03:00:08;9.70;1.00
1429;DHT22;708;51.442;7.016;2023-04-10T03:02:35;9.60;1.00
1429;DHT22;708;51.442;7.016;2023-04-10T03:05:02;9.60;1.00
1429;DHT22;708;51.442;7.016;2023-04-10T03:07:28;9.60;1.00
1429;DHT22;708;51.442;7.016;2023-04-10T03:09:57;9.60;1.00
1429;DHT22;708;51.442;7.016;2023-04-10T03:12:24;9.60;1.00
1429;DHT22;708;51.442;7.016;2023-04-10T03:14:51;9.60;1.00
1429;DHT22;708;51.442;7.016;2023-04-10T03:17:18;9.60;1.00
1429;DHT22;708;51.442;7.016;2023-04-10T03:19:45;9.60;1.00
1429;DHT22;708;51.442;7.016;2023-04-10T03:22:11;9.60;1.00
1429;DHT22;708;51.442;7.016;2023-04-10T03:24:38;9.60;1.00
1429;DHT22;708;51.442;7.016;2023-04-10T03:27:06;9.60;1.00
1429;DHT22;708;51.442;7.016;2023-04-10T03:29:33;9.60;1.00
1429;DHT22;708;51.442;7.016;2023-04-10T03:32:00;9.60;1.00
1429;DHT22;708;51.442;7.016;2023-04-10T03:34:26;9.60;1.00
1429;DHT22;708;51.442;7.016;2023-04-10T03:36:53;9.60;1.00
1429;DHT22;708;51.442;7.016;2023-04-10T03:39:20;9.60;1.00
1429;DHT22;708;51.442;7.016;2023-04-10T03:41:48;9.60;1.00
1429;DHT22;708;51.442;7.016;2023-04-10T03:44:16;9.60;1.00
1429;DHT22;708;51.442;7.016;2023-04-10T03:46:43;9.70;1.00
1429;DHT22;708;51.442;7.016;2023-04-10T03:49:10;9.70;1.00
1429;DHT22;708;51.442;7.016;2023-04-10T03:51:36;9.70;1.00
1429;DHT22;708;51.442;7.016;2023-04-10T03:54:03;9.70;1.00
1429;DHT22;708;51.442;7.016;2023-04-10T03:56:30;9.70;1.00
1429;DHT22;708;51.442;7.016;2023-04-10T03:58:57;9.70;1.00
1429;DHT22;708;51.442;7.016;2023-04-10T04:01:25;9.70;1.00
1429;DHT22;708;51.442;7.016;2023-04-10T04:03:51;9.70;1.00
1429;DHT22;708;51.442;7.016;2023-04-10T04:06:18;9.70;1.00
1429;DHT22;708;51.442;7.016;2023-04-10T04:08:45;9.70;1.00
1429;DHT22;708;51.442;7.016;2023-04-10T04:11:12;9.60;1.00
1429;DHT22;708;51.442;7.016;2023-04-10T04:13:39;9.60;1.00
1429;DHT22;708;51.442;7.016;2023-04-10T04:16:07;9.60;1.00
1429;DHT22;708;51.442;7.016;2023-04-10T04:18:35;9.60;1.00
1429;DHT22;708;51.442;7.016;2023-04-10T04:21:02;9.60;1.00
1429;DHT22;708;51.442;7.016;2023-04-10T04:23:28;9.60;1.00
1429;DHT22;708;51.442;7.016;2023-04-10T04:25:56;9.60;1.00
1429;DHT22;708;51.442;7.016;2023-04-10T04:28:23;9.60;1.00
1429;DHT22;708;51.442;7.016;2023-04-10T04:30:50;9.60;1.00
1429;DHT22;708;51.442;7.016;2023-04-10T04:33:17;9.60;1.00
1429;DHT22;708;51.442;7.016;2023-04-10T04:35:45;9.50;1.00
1429;DHT22;708;51.442;7.016;2023-04-10T04:38:12;9.40;1.00
1429;DHT22;708;51.442;7.016;2023-04-10T04:40:41;9.60;1.00
1429;DHT22;708;51.442;7.016;2023-04-10T04:43:07;9.60;1.00
1429;DHT22;708;51.442;7.016;2023-04-10T04:45:34;9.50;1.00
1429;DHT22;708;51.442;7.016;2023-04-10T04:48:01;9.70;1.00
1429;DHT22;708;51.442;7.016;2023-04-10T04:50:27;9.60;1.00
1429;DHT22;708;51.442;7.016;2023-04-10T04:52:55;9.60;1.00
1429;DHT22;708;51.442;7.016;2023-04-10T04:55:27;9.60;1.00
1429;DHT22;708;51.442;7.016;2023-04-10T04:57:54;9.60;1.00
1429;DHT22;708;51.442;7.016;2023-04-10T05:00:21;9.50;1.00
1429;DHT22;708;51.442;7.016;2023-04-10T05:02:47;9.50;1.00
1429;DHT22;708;51.442;7.016;2023-04-10T05:05:14;9.60;1.00
1429;DHT22;708;51.442;7.016;2023-04-10T05:07:41;9.60;1.00
1429;DHT22;708;51.442;7.016;2023-04-10T05:10:09;9.70;1.00
1429;DHT22;708;51.442;7.016;2023-04-10T05:12:36;9.70;1.00
1429;DHT22;708;51.442;7.016;2023-04-10T05:15:03;9.80;1.00
1429;DHT22;708;51.442;7.016;2023-04-10T05:17:30;9.90;1.00
1429;DHT22;708;51.442;7.016;2023-04-10T05:19:57;10.00;1.00
1429;DHT22;708;51.442;7.016;2023-04-10T05:22:24;10.30;1.00
1429;DHT22;708;51.442;7.016;2023-04-10T05:24:52;10.10;1.00
1429;DHT22;708;51.442;7.016;2023-04-10T05:27:20;10.40;1.00
1429;DHT22;708;51.442;7.016;2023-04-10T05:29:49;10.50;1.00
1429;DHT22;708;51.442;7.016;2023-04-10T05:54:21;13.10;1.00
1429;DHT22;708;51.442;7.016;2023-04-10T05:56:48;13.50;99.90
1429;DHT22;708;51.442;7.016;2023-04-10T05:59:15;14.10;94.50
1429;DHT22;708;51.442;7.016;2023-04-10T06:01:43;14.70;90.10
1429;DHT22;708;51.442;7.016;2023-04-10T06:04:10;15.30;84.20
1429;DHT22;708;51.442;7.016;2023-04-10T06:06:37;16.00;81.20
1429;DHT22;708;51.442;7.016;2023-04-10T06:09:05;16.80;76.10
1429;DHT22;708;51.442;7.016;2023-04-10T06:11:31;17.80;72.30
1429;DHT22;708;51.442;7.016;2023-04-10T06:13:59;18.70;66.70
1429;DHT22;708;51.442;7.016;2023-04-10T06:16:26;19.60;63.60
1429;DHT22;708;51.442;7.016;2023-04-10T06:18:54;20.40;59.30
1429;DHT22;708;51.442;7.016;2023-04-10T06:21:21;21.00;57.20
1429;DHT22;708;51.442;7.016;2023-04-10T06:23:48;21.60;55.50
1429;DHT22;708;51.442;7.016;2023-04-10T06:26:14;21.50;53.50
1429;DHT22;708;51.442;7.016;2023-04-10T06:28:41;21.40;52.40
1429;DHT22;708;51.442;7.016;2023-04-10T06:31:09;21.10;50.50
1429;DHT22;708;51.442;7.016;2023-04-10T06:33:35;20.90;50.20
1429;DHT22;708;51.442;7.016;2023-04-10T06:36:04;20.60;48.50
1429;DHT22;708;51.442;7.016;2023-04-10T06:38:31;20.50;47.90
1429;DHT22;708;51.442;7.016;2023-04-10T06:41:02;20.40;48.60
1429;DHT22;708;51.442;7.016;2023-04-10T06:43:29;20.50;47.20
1429;DHT22;708;51.442;7.016;2023-04-10T06:45:56;20.40;47.20
1429;DHT22;708;51.442;7.016;2023-04-10T06:48:23;20.80;47.60
1429;DHT22;708;51.442;7.016;2023-04-10T06:50:50;21.20;99.90
1429;DHT22;708;51.442;7.016;2023-04-10T06:55:47;22.80;99.90
1429;DHT22;708;51.442;7.016;2023-04-10T06:58:16;23.80;26.80
1429;DHT22;708;51.442;7.016;2023-04-10T07:00:43;23.90;1.00
1429;DHT22;708;51.442;7.016;2023-04-10T07:08:12;25.50;35.80
1429;DHT22;708;51.442;7.016;2023-04-10T07:15:35;26.00;32.30
1429;DHT22;708;51.442;7.016;2023-04-10T07:18:02;25.70;38.40
1429;DHT22;708;51.442;7.016;2023-04-10T07:20:29;25.30;37.10
1429;DHT22;708;51.442;7.016;2023-04-10T07:22:56;24.60;36.70
1429;DHT22;708;51.442;7.016;2023-04-10T07:25:23;23.90;35.80
1429;DHT22;708;51.442;7.016;2023-04-10T07:27:51;22.90;34.70
1429;DHT22;708;51.442;7.016;2023-04-10T07:30:18;22.60;34.60
1429;DHT22;708;51.442;7.016;2023-04-10T07:32:45;22.70;34.90
1429;DHT22;708;51.442;7.016;2023-04-10T07:35:11;23.20;34.50
1429;DHT22;708;51.442;7.016;2023-04-10T07:37:38;23.50;33.80
1429;DHT22;708;51.442;7.016;2023-04-10T07:40:07;23.60;33.30
1429;DHT22;708;51.442;7.016;2023-04-10T07:42:34;23.50;33.70
1429;DHT22;708;51.442;7.016;2023-04-10T07:45:02;23.50;32.60
1429;DHT22;708;51.442;7.016;2023-04-10T07:47:29;23.50;32.40
1429;DHT22;708;51.442;7.016;2023-04-10T07:49:56;23.30;32.60
1429;DHT22;708;51.442;7.016;2023-04-10T07:52:22;23.30;32.10
1429;DHT22;708;51.442;7.016;2023-04-10T07:54:50;23.20;31.50
1429;DHT22;708;51.442;7.016;2023-04-10T07:57:16;23.10;31.40
1429;DHT22;708;51.442;7.016;2023-04-10T07:59:43;22.80;31.50
1429;DHT22;708;51.442;7.016;2023-04-10T08:02:11;22.60;31.20
1429;DHT22;708;51.442;7.016;2023-04-10T08:04:38;22.80;30.40
1429;DHT22;708;51.442;7.016;2023-04-10T08:07:07;23.30;30.70
1429;DHT22;708;51.442;7.016;2023-04-10T08:09:33;23.90;30.90
1429;DHT22;708;51.442;7.016;2023-04-10T08:12:00;24.40;30.20
1429;DHT22;708;51.442;7.016;2023-04-10T08:14:27;25.30;29.90
1429;DHT22;708;51.442;7.016;2023-04-10T08:16:53;26.50;22.20
1429;DHT22;708;51.442;7.016;2023-04-10T08:19:22;27.30;28.30
1429;DHT22;708;51.442;7.016;2023-04-10T08:21:48;27.90;28.00
1429;DHT22;708;51.442;7.016;2023-04-10T08:24:15;28.10;27.30
1429;DHT22;708;51.442;7.016;2023-04-10T08:26:44;28.20;26.30
1429;DHT22;708;51.442;7.016;2023-04-10T08:29:13;28.10;26.30
1429;DHT22;708;51.442;7.016;2023-04-10T08:31:40;28.00;25.10
1429;DHT22;708;51.442;7.016;2023-04-10T08:34:06;28.10;25.00
1429;DHT22;708;51.442;7.016;2023-04-10T08:36:34;27.50;24.30
1429;DHT22;708;51.442;7.016;2023-04-10T08:39:01;27.40;24.70
1429;DHT22;708;51.442;7.016;2023-04-10T08:41:28;27.00;23.90
1429;DHT22;708;51.442;7.016;2023-04-10T08:43:55;26.70;23.70
1429;DHT22;708;51.442;7.016;2023-04-10T08:46:22;26.70;23.70
1429;DHT22;708;51.442;7.016;2023-04-10T08:48:54;26.50;22.70
1429;DHT22;708;51.442;7.016;2023-04-10T08:51:31;26.30;22.80
1429;DHT22;708;51.442;7.016;2023-04-10T08:54:06;25.90;22.50
1429;DHT22;708;51.442;7.016;2023-04-10T08:56:34;25.40;22.50
1429;DHT22;708;51.442;7.016;2023-04-10T08:59:01;25.40;22.20
1429;DHT22;708;51.442;7.016;2023-04-10T09:01:28;25.10;22.20
1429;DHT22;708;51.442;7.016;2023-04-10T09:03:58;24.70;22.20
1429;DHT22;708;51.442;7.016;2023-04-10T09:06:25;24.20;22.20
1429;DHT22;708;51.442;7.016;2023-04-10T09:08:52;23.90;21.70
1429;DHT22;708;51.442;7.016;2023-04-10T09:11:20;23.70;21.40
1429;DHT22;708;51.442;7.016;2023-04-10T09:13:46;23.90;22.20
1429;DHT22;708;51.442;7.016;2023-04-10T09:16:13;23.90;22.00
1429;DHT22;708;51.442;7.016;2023-04-10T09:18:42;23.50;21.80
1429;DHT22;708;51.442;7.016;2023-04-10T09:21:11;23.30;21.50
1429;DHT22;708;51.442;7.016;2023-04-10T09:23:37;23.50;22.10
1429;DHT22;708;51.442;7.016;2023-04-10T09:26:25;23.50;21.70
1429;DHT22;708;51.442;7.016;2023-04-10T09:28:57;23.50;21.50
1429;DHT22;708;51.442;7.016;2023-04-10T09:31:29;23.60;21.70
1429;DHT22;708;51.442;7.016;2023-04-10T09:34:11;23.40;21.20
1429;DHT22;708;51.442;7.016;2023-04-10T09:36:39;23.40;20.70
1429;DHT22;708;51.442;7.016;2023-04-10T09:39:07;23.40;21.20
1429;DHT22;708;51.442;7.016;2023-04-10T09:41:46;23.90;21.60
1429;DHT22;708;51.442;7.016;2023-04-10T09:44:17;24.30;21.30
1429;DHT22;708;51.442;7.016;2023-04-10T09:46:44;24.40;21.10
1429;DHT22;708;51.442;7.016;2023-04-10T09:49:11;24.30;20.60
1429;DHT22;708;51.442;7.016;2023-04-10T09:51:37;24.40;20.90
1429;DHT22;708;51.442;7.016;2023-04-10T09:54:04;24.10;20.50
1429;DHT22;708;51.442;7.016;2023-04-10T09:56:34;23.90;20.50
1429;DHT22;708;51.442;7.016;2023-04-10T09:59:06;23.60;20.60
1429;DHT22;708;51.442;7.016;2023-04-10T10:01:33;23.10;20.50
1429;DHT22;708;51.442;7.016;2023-04-10T10:04:01;22.80;20.60
1429;DHT22;708;51.442;7.016;2023-04-10T10:06:29;22.60;20.30
1429;DHT22;708;51.442;7.016;2023-04-10T10:08:59;22.30;21.20
1429;DHT22;708;51.442;7.016;2023-04-10T10:11:28;22.10;20.50
1429;DHT22;708;51.442;7.016;2023-04-10T10:13:56;22.00;20.40
1429;DHT22;708;51.442;7.016;2023-04-10T10:16:30;21.90;20.60
1429;DHT22;708;51.442;7.016;2023-04-10T10:19:01;22.00;12.90
1429;DHT22;708;51.442;7.016;2023-04-10T10:21:31;21.90;20.10
1429;DHT22;708;51.442;7.016;2023-04-10T10:24:01;22.10;19.70
1429;DHT22;708;51.442;7.016;2023-04-10T10:26:29;22.20;19.70
1429;DHT22;708;51.442;7.016;2023-04-10T10:29:02;22.20;19.60
1429;DHT22;708;51.442;7.016;2023-04-10T10:31:31;22.20;18.80
1429;DHT22;708;51.442;7.016;2023-04-10T10:34:00;21.90;19.50
1429;DHT22;708;51.442;7.016;2023-04-10T10:36:29;21.70;19.10
1429;DHT22;708;51.442;7.016;2023-04-10T10:39:15;21.80;18.90
1429;DHT22;708;51.442;7.016;2023-04-10T10:41:48;22.00;19.50
1429;DHT22;708;51.442;7.016;2023-04-10T10:44:25;21.70;18.90
1429;DHT22;708;51.442;7.016;2023-04-10T10:47:03;21.70;18.70
1429;DHT22;708;51.442;7.016;2023-04-10T10:49:53;21.80;18.60
1429;DHT22;708;51.442;7.016;2023-04-10T10:52:40;21.80;18.90
1429;DHT22;708;51.442;7.016;2023-04-10T10:55:29;21.70;19.50
1429;DHT22;708;51.442;7.016;2023-04-10T10:58:06;21.60;18.80
1429;DHT22;708;51.442;7.016;2023-04-10T11:01:04;21.80;18.70
1429;DHT22;708;51.442;7.016;2023-04-10T11:03:33;22.10;19.00
1429;DHT22;708;51.442;7.016;2023-04-10T11:06:01;22.20;18.60
1429;DHT22;708;51.442;7.016;2023-04-10T11:08:35;22.00;18.70
1429;DHT22;708;51.442;7.016;2023-04-10T11:11:05;21.90;18.10
1429;DHT22;708;51.442;7.016;2023-04-10T11:13:33;21.80;17.70
1429;DHT22;708;51.442;7.016;2023-04-10T11:16:01;21.70;18.20
1429;DHT22;708;51.442;7.016;2023-04-10T11:19:03;21.80;17.70
1429;DHT22;708;51.442;7.016;2023-04-10T11:21:31;21.70;18.20
1429;DHT22;708;51.442;7.016;2023-04-10T11:24:02;21.40;19.00
1429;DHT22;708;51.442;7.016;2023-04-10T11:26:36;21.20;18.60
1429;DHT22;708;51.442;7.016;2023-04-10T11:29:04;21.10;19.10
1429;DHT22;708;51.442;7.016;2023-04-10T11:31:31;21.10;19.80
1429;DHT22;708;51.442;7.016;2023-04-10T11:34:04;21.10;19.60
1429;DHT22;708;51.442;7.016;2023-04-10T11:36:32;20.10;18.80
1429;DHT22;708;51.442;7.016;2023-04-10T11:39:01;21.00;18.90
1429;DHT22;708;51.442;7.016;2023-04-10T11:41:31;21.00;19.20
1429;DHT22;708;51.442;7.016;2023-04-10T11:43:59;21.10;19.50
1429;DHT22;708;51.442;7.016;2023-04-10T11:46:26;21.20;19.40
1429;DHT22;708;51.442;7.016;2023-04-10T11:48:53;21.30;19.40
1429;DHT22;708;51.442;7.016;2023-04-10T11:51:22;21.20;17.90
1429;DHT22;708;51.442;7.016;2023-04-10T11:53:48;21.40;18.00
1429;DHT22;708;51.442;7.016;2023-04-10T11:56:17;21.50;17.40
1429;DHT22;708;51.442;7.016;2023-04-10T11:58:44;21.60;17.50
1429;DHT22;708;51.442;7.016;2023-04-10T12:01:10;21.70;18.10
1429;DHT22;708;51.442;7.016;2023-04-10T12:03:40;21.70;17.50
1429;DHT22;708;51.442;7.016;2023-04-10T12:06:09;21.70;18.10
1429;DHT22;708;51.442;7.016;2023-04-10T12:08:38;21.70;17.80
1429;DHT22;708;51.442;7.016;2023-04-10T12:11:06;21.90;17.60
1429;DHT22;708;51.442;7.016;2023-04-10T12:13:34;21.80;17.10
1429;DHT22;708;51.442;7.016;2023-04-10T12:16:03;21.70;16.80
1429;DHT22;708;51.442;7.016;2023-04-10T12:18:30;21.80;17.20
1429;DHT22;708;51.442;7.016;2023-04-10T12:20:58;21.80;17.20
1429;DHT22;708;51.442;7.016;2023-04-10T12:23:26;21.70;17.00
1429;DHT22;708;51.442;7.016;2023-04-10T12:26:12;21.90;17.40
1429;DHT22;708;51.442;7.016;2023-04-10T12:28:41;22.10;16.90
1429;DHT22;708;51.442;7.016;2023-04-10T12:31:08;22.10;17.00
1429;DHT22;708;51.442;7.016;2023-04-10T12:33:35;22.10;16.50
1429;DHT22;708;51.442;7.016;2023-04-10T12:36:02;22.00;17.00
1429;DHT22;708;51.442;7.016;2023-04-10T12:38:36;21.90;16.80
1429;DHT22;708;51.442;7.016;2023-04-10T12:41:05;22.00;16.70
1429;DHT22;708;51.442;7.016;2023-04-10T12:43:33;21.80;18.20
1429;DHT22;708;51.442;7.016;2023-04-10T12:46:00;21.70;16.70
1429;DHT22;708;51.442;7.016;2023-04-10T12:48:27;21.70;16.60
1429;DHT22;708;51.442;7.016;2023-04-10T12:50:54;21.70;16.00
1429;DHT22;708;51.442;7.016;2023-04-10T12:53:21;21.50;15.90
1429;DHT22;708;51.442;7.016;2023-04-10T12:56:02;21.60;15.90
1429;DHT22;708;51.442;7.016;2023-04-10T12:58:31;21.60;16.30
1429;DHT22;708;51.442;7.016;2023-04-10T13:01:01;21.50;16.40
1429;DHT22;708;51.442;7.016;2023-04-10T13:03:28;21.50;16.30
1429;DHT22;708;51.442;7.016;2023-04-10T13:05:55;21.70;15.70
1429;DHT22;708;51.442;7.016;2023-04-10T13:08:22;21.70;16.80
1429;DHT22;708;51.442;7.016;2023-04-10T13:10:48;21.90;16.30
1429;DHT22;708;51.442;7.016;2023-04-10T13:13:16;22.00;15.90
1429;DHT22;708;51.442;7.016;2023-04-10T13:15:44;22.00;15.80
1429;DHT22;708;51.442;7.016;2023-04-10T13:18:11;21.90;16.10
1429;DHT22;708;51.442;7.016;2023-04-10T13:20:38;22.00;15.00
1429;DHT22;708;51.442;7.016;2023-04-10T13:23:06;22.10;15.30
1429;DHT22;708;51.442;7.016;2023-04-10T13:25:36;22.00;15.10
1429;DHT22;708;51.442;7.016;2023-04-10T13:28:04;21.90;15.70
1429;DHT22;708;51.442;7.016;2023-04-10T13:30:34;21.90;15.30
1429;DHT22;708;51.442;7.016;2023-04-10T13:33:03;21.90;15.10
1429;DHT22;708;51.442;7.016;2023-04-10T13:35:30;22.10;15.70
1429;DHT22;708;51.442;7.016;2023-04-10T13:37:57;22.10;15.50
1429;DHT22;708;51.442;7.016;2023-04-10T13:40:24;22.10;15.00
1429;DHT22;708;51.442;7.016;2023-04-10T13:42:51;21.90;14.60
1429;DHT22;708;51.442;7.016;2023-04-10T13:45:18;21.60;13.30
1429;DHT22;708;51.442;7.016;2023-04-10T13:47:44;21.40;13.00
1429;DHT22;708;51.442;7.016;2023-04-10T13:50:13;21.30;12.90
1429;DHT22;708;51.442;7.016;2023-04-10T13:52:39;21.40;12.80
1429;DHT22;708;51.442;7.016;2023-04-10T13:55:07;21.60;13.10
1429;DHT22;708;51.442;7.016;2023-04-10T13:57:34;21.70;13.30
1429;DHT22;708;51.442;7.016;2023-04-10T14:00:01;21.60;12.80
1429;DHT22;708;51.442;7.016;2023-04-10T14:02:29;21.50;13.10
1429;DHT22;708;51.442;7.016;2023-04-10T14:04:55;21.50;12.90
1429;DHT22;708;51.442;7.016;2023-04-10T14:07:25;21.50;12.50
1429;DHT22;708;51.442;7.016;2023-04-10T14:09:52;21.20;12.50
1429;DHT22;708;51.442;7.016;2023-04-10T14:12:19;21.20;12.60
1429;DHT22;708;51.442;7.016;2023-04-10T14:14:47;21.20;12.50
1429;DHT22;708;51.442;7.016;2023-04-10T14:17:14;21.20;12.60
1429;DHT22;708;51.442;7.016;2023-04-10T14:19:41;21.30;12.50
1429;DHT22;708;51.442;7.016;2023-04-10T14:22:08;21.30;20.30
1429;DHT22;708;51.442;7.016;2023-04-10T14:24:36;21.30;12.60
1429;DHT22;708;51.442;7.016;2023-04-10T14:27:03;21.20;12.60
1429;DHT22;708;51.442;7.016;2023-04-10T14:29:29;21.00;12.30
1429;DHT22;708;51.442;7.016;2023-04-10T14:31:57;20.90;13.40
1429;DHT22;708;51.442;7.016;2023-04-10T14:34:24;20.70;13.50
1429;DHT22;708;51.442;7.016;2023-04-10T14:36:50;20.70;13.00
1429;DHT22;708;51.442;7.016;2023-04-10T14:39:21;20.50;13.40
1429;DHT22;708;51.442;7.016;2023-04-10T14:41:49;20.40;12.70
1429;DHT22;708;51.442;7.016;2023-04-10T14:44:16;20.40;12.80
1429;DHT22;708;51.442;7.016;2023-04-10T14:46:43;20.30;13.10
1429;DHT22;708;51.442;7.016;2023-04-10T14:49:11;20.30;13.30
1429;DHT22;708;51.442;7.016;2023-04-10T14:51:38;20.20;12.80
1429;DHT22;708;51.442;7.016;2023-04-10T14:54:05;20.10;12.50
1429;DHT22;708;51.442;7.016;2023-04-10T14:56:32;20.10;12.80
1429;DHT22;708;51.442;7.016;2023-04-10T14:59:00;20.00;12.70
1429;DHT22;708;51.442;7.016;2023-04-10T15:01:27;20.10;12.80
1429;DHT22;708;51.442;7.016;2023-04-10T15:03:53;20.00;13.20
1429;DHT22;708;51.442;7.016;2023-04-10T15:06:20;20.10;13.10
1429;DHT22;708;51.442;7.016;2023-04-10T15:08:47;20.00;13.00
1429;DHT22;708;51.442;7.016;2023-04-10T15:11:14;20.00;15.80
1429;DHT22;708;51.442;7.016;2023-04-10T15:13:40;19.90;13.20
1429;DHT22;708;51.442;7.016;2023-04-10T15:16:08;19.80;12.60
1429;DHT22;708;51.442;7.016;2023-04-10T15:18:36;19.80;12.70
1429;DHT22;708;51.442;7.016;2023-04-10T15:21:03;19.80;13.40
1429;DHT22;708;51.442;7.016;2023-04-10T15:23:30;19.90;12.80
1429;DHT22;708;51.442;7.016;2023-04-10T15:25:57;19.90;13.00
1429;DHT22;708;51.442;7.016;2023-04-10T15:28:24;19.90;13.40
1429;DHT22;708;51.442;7.016;2023-04-10T15:30:52;20.00;13.40
1429;DHT22;708;51.442;7.016;2023-04-10T15:33:21;19.80;13.40
1429;DHT22;708;51.442;7.016;2023-04-10T15:35:48;19.80;12.90
1429;DHT22;708;51.442;7.016;2023-04-10T15:38:15;20.00;12.60
1429;DHT22;708;51.442;7.016;2023-04-10T15:40:42;20.10;12.70
1429;DHT22;708;51.442;7.016;2023-04-10T15:43:08;20.10;13.00
1429;DHT22;708;51.442;7.016;2023-04-10T15:45:35;20.00;12.30
1429;DHT22;708;51.442;7.016;2023-04-10T15:48:02;19.90;12.60
1429;DHT22;708;51.442;7.016;2023-04-10T15:50:31;19.80;20.20
1429;DHT22;708;51.442;7.016;2023-04-10T15:52:58;19.80;13.20
1429;DHT22;708;51.442;7.016;2023-04-10T15:55:24;19.80;13.20
1429;DHT22;708;51.442;7.016;2023-04-10T15:57:51;19.80;12.70
1429;DHT22;708;51.442;7.016;2023-04-10T16:00:18;19.80;12.60
1429;DHT22;708;51.442;7.016;2023-04-10T16:02:45;19.60;12.90
1429;DHT22;708;51.442;7.016;2023-04-10T16:05:12;19.60;12.50
1429;DHT22;708;51.442;7.016;2023-04-10T16:07:40;19.50;12.90
1429;DHT22;708;51.442;7.016;2023-04-10T16:10:08;19.40;12.60
1429;DHT22;708;51.442;7.016;2023-04-10T16:12:35;19.30;14.00
1429;DHT22;708;51.442;7.016;2023-04-10T16:15:03;19.20;13.00
1429;DHT22;708;51.442;7.016;2023-04-10T16:17:30;19.20;13.30
1429;DHT22;708;51.442;7.016;2023-04-10T16:19:56;19.30;13.40
1429;DHT22;708;51.442;7.016;2023-04-10T16:22:24;19.20;13.40
1429;DHT22;708;51.442;7.016;2023-04-10T16:24:58;19.20;13.30
1429;DHT22;708;51.442;7.016;2023-04-10T16:27:36;19.10;14.00
1429;DHT22;708;51.442;7.016;2023-04-10T16:30:17;19.00;14.60
1429;DHT22;708;51.442;7.016;2023-04-10T16:32:53;18.90;14.50
1429;DHT22;708;51.442;7.016;2023-04-10T16:35:25;18.80;14.30
1429;DHT22;708;51.442;7.016;2023-04-10T16:37:55;18.80;14.30
1429;DHT22;708;51.442;7.016;2023-04-10T16:40:23;18.70;14.90
1429;DHT22;708;51.442;7.016;2023-04-10T16:42:56;18.60;15.10
1429;DHT22;708;51.442;7.016;2023-04-10T16:45:24;18.50;15.00
1429;DHT22;708;51.442;7.016;2023-04-10T16:47:51;18.30;16.30
1429;DHT22;708;51.442;7.016;2023-04-10T16:50:18;18.20;17.50
1429;DHT22;708;51.442;7.016;2023-04-10T16:52:44;17.90;19.10
1429;DHT22;708;51.442;7.016;2023-04-10T16:55:11;17.60;15.30
1429;DHT22;708;51.442;7.016;2023-04-10T16:57:40;17.40;26.70
1429;DHT22;708;51.442;7.016;2023-04-10T17:00:08;17.10;37.90
1429;DHT22;708;51.442;7.016;2023-04-10T17:02:35;16.90;79.60
1429;DHT22;708;51.442;7.016;2023-04-10T17:05:02;16.70;99.90
1429;DHT22;708;51.442;7.016;2023-04-10T17:07:29;16.50;99.90
1429;DHT22;708;51.442;7.016;2023-04-10T17:09:55;16.30;99.90